Data for 12/04/2007

Time Sea-Level Adjusted Pressure Absolute Pressure Temperature Relative Humidity Dew Point   
(mb) (inHg) (mb) (inHg) (C) (F) (%) (C) (F)
00:05 1023 30.21 852 25.16 4.1 39.4 88 2.3 36.2
00:10 1023 30.21 852 25.16 4.1 39.3 88 2.3 36.2
00:15 1023 30.21 852 25.16 4 39.2 88 2.3 36.1
00:20 1023 30.21 852 25.16 4.1 39.4 87 2.2 35.9
00:25 1023 30.21 852 25.16 4.2 39.6 88 2.4 36.3
00:30 1023 30.21 852 25.16 4.3 39.7 87 2.3 36.2
00:35 1023 30.21 852 25.16 4.4 39.9 87 2.4 36.3
00:40 1023 30.21 852 25.16 4.6 40.3 86 2.5 36.4
00:45 1023 30.21 852 25.16 4.7 40.4 86 2.5 36.4
00:50 1023 30.21 852 25.16 4.5 40.1 87 2.5 36.4
00:55 1022 30.18 852 25.16 4.4 40 86 2.3 36.1
01:00 1022 30.18 851 25.13 4.6 40.2 86 2.4 36.2
01:05 1022 30.18 851 25.13 4.6 40.3 85 2.2 36
01:10 1022 30.18 851 25.13 4.8 40.6 84 2.3 36.1
01:15 1022 30.18 851 25.13 4.8 40.6 83 2.2 35.9
01:20 1022 30.18 851 25.13 4.6 40.3 85 2.2 36
01:25 1022 30.18 851 25.13 4.5 40.1 85 2.2 35.9
01:30 1022 30.18 851 25.13 4.6 40.2 84 2.1 35.8
01:35 1022 30.18 852 25.16 4.7 40.5 84 2.3 36.2
01:40 1022 30.18 852 25.16 4.9 40.8 83 2.3 36.1
01:45 1022 30.18 852 25.16 4.9 40.7 85 2.5 36.5
01:50 1022 30.18 852 25.16 4.6 40.2 88 2.7 36.9
01:55 1022 30.18 851 25.13 4.3 39.8 87 2.4 36.3
02:00 1022 30.18 852 25.16 4.3 39.8 88 2.4 36.4
02:05 1022 30.18 851 25.13 4.3 39.8 87 2.4 36.3
02:10 1022 30.18 851 25.13 4.2 39.6 87 2.3 36.2
02:15 1022 30.18 851 25.13 4.2 39.6 88 2.4 36.2
02:20 1022 30.18 851 25.13 4.1 39.4 88 2.4 36.3
02:25 1022 30.18 851 25.13 3.9 39.1 89 2.3 36.1
02:30 1022 30.18 851 25.13 4 39.1 88 2.2 36
02:35 1022 30.18 851 25.13 3.9 39.1 88 2.2 35.9
02:40 1022 30.18 851 25.13 3.9 39.1 88 2.1 35.7
02:45 1022 30.18 851 25.13 4 39.2 87 2 35.7
02:50 1022 30.18 851 25.13 4.1 39.4 86 2 35.6
02:55 1022 30.18 851 25.13 4.3 39.7 86 2.2 35.9
03:00 1022 30.18 851 25.13 4.4 39.9 85 2.1 35.8
03:05 1022 30.18 851 25.13 4.5 40.2 84 2.1 35.8
03:10 1022 30.18 851 25.13 4.7 40.5 83 2.1 35.7
03:15 1022 30.18 851 25.13 4.8 40.7 82 2 35.6
03:20 1021 30.15 851 25.13 4.8 40.7 82 2 35.6
03:25 1021 30.15 851 25.13 4.8 40.6 82 1.9 35.5
03:30 1021 30.15 850 25.1 4.8 40.6 83 2.1 35.7
03:35 1021 30.15 850 25.1 4.8 40.6 82 1.9 35.4
03:40 1021 30.15 850 25.1 4.9 40.7 81 1.9 35.4
03:45 1021 30.15 850 25.1 4.9 40.9 81 1.9 35.4
03:50 1021 30.15 850 25.1 5 41 81 1.9 35.4
03:55 1021 30.15 850 25.1 5 40.9 81 2 35.6
04:00 1021 30.15 850 25.1 4.7 40.4 82 1.8 35.3
04:05 1021 30.15 850 25.1 4.6 40.2 82 1.8 35.2
04:10 1021 30.15 850 25.1 4.5 40.1 81 1.5 34.7
04:15 1021 30.15 850 25.1 4.8 40.6 80 1.5 34.8
04:20 1021 30.15 850 25.1 4.8 40.7 79 1.5 34.8
04:25 1021 30.15 850 25.1 4.9 40.8 79 1.6 34.9
04:30 1021 30.15 850 25.1 5.1 41.2 79 1.7 35
04:35 1021 30.15 850 25.1 4.9 40.9 80 1.8 35.2
04:40 1021 30.15 850 25.1 4.8 40.7 80 1.6 34.9
04:45 1021 30.15 850 25.1 5 41 79 1.7 35
04:50 1021 30.15 850 25.1 5.3 41.5 76 1.4 34.6
04:55 1021 30.15 850 25.1 5.7 42.2 76 1.7 35.1
05:00 1021 30.15 850 25.1 5.8 42.4 74 1.5 34.7
05:05 1021 30.15 850 25.1 6.1 43 72 1.5 34.7
05:10 1021 30.15 850 25.1 6.3 43.4 72 1.6 34.8
05:15 1021 30.15 850 25.1 6.5 43.7 70 1.5 34.7
05:20 1021 30.15 850 25.1 7 44.5 67 1.3 34.3
05:25 1021 30.15 850 25.1 7 44.6 70 1.8 35.3
05:30 1021 30.15 850 25.1 6.5 43.7 70 1.5 34.7
05:35 1020 30.12 850 25.1 6.3 43.4 68 0.9 33.6
05:40 1020 30.12 850 25.1 6.6 43.9 69 1.4 34.5
05:45 1020 30.12 850 25.1 6.3 43.4 69 1.1 34
05:50 1020 30.12 850 25.1 6.5 43.7 67 0.8 33.5
05:55 1020 30.12 850 25.1 7.4 45.3 62 0.5 32.9
06:00 1020 30.12 850 25.1 8 46.4 59 0.4 32.8
06:05 1020 30.12 849 25.07 8.4 47.2 59 0.9 33.6
06:10 1020 30.12 849 25.07 8.1 46.5 61 1 33.8
06:15 1020 30.12 849 25.07 7.6 45.8 62 1 33.7
06:20 1020 30.12 849 25.07 7.2 44.9 65 1.1 34
06:25 1020 30.12 849 25.07 6.7 44 65 0.7 33.2
06:30 1020 30.12 849 25.07 6.5 43.6 67 0.9 33.6
06:35 1020 30.12 849 25.07 6.2 43.1 68 0.7 33.2
06:40 1020 30.12 849 25.07 6 42.7 68 0.6 33
06:45 1020 30.12 849 25.07 5.9 42.7 69 0.6 33.2
06:50 1020 30.12 849 25.07 5.9 42.6 69 0.6 33.1
06:55 1020 30.12 849 25.07 5.8 42.4 69 0.6 33.1
07:00 1020 30.12 849 25.07 5.6 42.1 70 0.6 33.1
07:05 1020 30.12 849 25.07 5.6 42.1 69 0.4 32.7
07:10 1020 30.12 849 25.07 6.2 43.2 64 -0.1 31.7
07:15 1020 30.12 849 25.07 7.6 45.7 57 -0.3 31.5
07:20 1020 30.12 849 25.07 8.6 47.5 56 0.3 32.6
07:25 1020 30.12 849 25.07 8.7 47.7 56 0.5 32.8
07:30 1020 30.12 849 25.07 8.7 47.7 55 0.3 32.5
07:35 1020 30.12 849 25.07 8.8 47.8 56 0.4 32.8
07:40 1020 30.12 849 25.07 8.7 47.7 56 0.4 32.8
07:45 1020 30.12 849 25.07 8.7 47.6 55 0.3 32.6
07:50 1020 30.12 849 25.07 8.8 47.8 55 0.4 32.6
07:55 1020 30.12 849 25.07 8.7 47.6 56 0.4 32.7
08:00 1020 30.12 849 25.07 8.7 47.6 56 0.4 32.8
08:05 1020 30.12 849 25.07 8.8 47.8 56 0.5 32.9
08:10 1020 30.12 849 25.07 8.8 47.8 55 0.4 32.7
08:15 1020 30.12 849 25.07 9 48.1 54 0.3 32.6
08:20 1020 30.12 849 25.07 9 48.1 55 0.5 32.9
08:25 1020 30.12 849 25.07 8.9 48 55 0.5 32.8
08:30 1020 30.12 849 25.07 8.9 48 55 0.5 32.8
08:35 1020 30.12 849 25.07 8.8 47.8 56 0.5 32.9
08:40 1020 30.12 849 25.07 8.9 47.9 55 0.4 32.7
08:45 1020 30.12 849 25.07 8.8 47.8 55 0.3 32.6
08:50 1020 30.12 849 25.07 8.9 48 54 0.2 32.4
08:55 1020 30.12 849 25.07 9 48.1 55 0.4 32.7
09:00 1020 30.12 849 25.07 8.9 48 55 0.3 32.5
09:05 1020 30.12 849 25.07 8.9 48.1 55 0.4 32.6
09:10 1020 30.12 849 25.07 8.9 48.1 55 0.3 32.5
09:15 1020 30.12 849 25.07 9 48.2 54 0.2 32.4
09:20 1020 30.12 849 25.07 9.1 48.3 53 0.1 32.1
09:25 1020 30.12 849 25.07 9.4 48.8 53 0.3 32.5
09:30 1020 30.12 849 25.07 9.2 48.5 54 0.4 32.7
09:35 1020 30.12 849 25.07 9 48.2 54 0.2 32.4
09:40 1020 30.12 849 25.07 9 48.2 55 0.4 32.7
09:45 1020 30.12 849 25.07 8.9 48.1 55 0.4 32.7
09:50 1020 30.12 849 25.07 8.9 48 55 0.3 32.5
09:55 1020 30.12 849 25.07 9.1 48.4 53 0.2 32.3
10:00 1020 30.12 849 25.07 9.4 49 53 0.3 32.5
10:05 1020 30.12 849 25.07 9.6 49.3 53 0.4 32.8
10:10 1020 30.12 849 25.07 9.5 49.1 53 0.5 32.9
10:15 1020 30.12 849 25.07 9.6 49.2 52 0.3 32.5
10:20 1020 30.12 850 25.1 9.8 49.6 52 0.5 32.8
10:25 1020 30.12 850 25.1 9.7 49.4 53 0.6 33
10:30 1020 30.12 850 25.1 9.6 49.3 53 0.7 33.2
10:35 1020 30.12 850 25.1 9.5 49.1 54 0.7 33.2
10:40 1020 30.12 850 25.1 9.3 48.8 54 0.5 33
10:45 1021 30.15 850 25.1 9.4 49 53 0.4 32.8
10:50 1021 30.15 850 25.1 9.6 49.2 53 0.4 32.6
10:55 1021 30.15 850 25.1 9.7 49.4 52 0.3 32.5
11:00 1021 30.15 850 25.1 9.9 49.7 52 0.5 32.9
11:05 1021 30.15 850 25.1 9.8 49.6 52 0.6 33
11:10 1021 30.15 850 25.1 9.7 49.4 54 0.8 33.4
11:15 1021 30.15 851 25.13 9.5 49.1 57 1.5 34.6
11:20 1021 30.15 850 25.1 9.3 48.7 56 0.9 33.6
11:25 1021 30.15 851 25.13 9.3 48.8 57 1.4 34.4
11:30 1022 30.18 851 25.13 9 48.3 62 2.2 36
11:35 1021 30.15 851 25.13 8.4 47 65 2.1 35.8
11:40 1021 30.15 851 25.13 7.4 45.3 71 2.4 36.4
11:45 1021 30.15 851 25.13 6.8 44.3 72 2.2 35.9
11:50 1021 30.15 850 25.1 6.7 44 73 2.1 35.9
11:55 1021 30.15 850 25.1 6.7 44.1 71 1.9 35.4
12:00 1021 30.15 850 25.1 6.9 44.5 70 1.9 35.4
12:05 1021 30.15 850 25.1 7.1 44.7 70 2 35.5
12:10 1021 30.15 850 25.1 7.2 44.9 70 2 35.7
12:15 1021 30.15 850 25.1 7.3 45.2 70 2.2 36
12:20 1021 30.15 850 25.1 7.5 45.5 68 2.1 35.8
12:25 1021 30.15 850 25.1 7.9 46.2 68 2.3 36.2
12:30 1021 30.15 850 25.1 8.1 46.6 67 2.5 36.5
12:35 1021 30.15 850 25.1 8.3 46.9 67 2.5 36.6
12:40 1021 30.15 850 25.1 8.2 46.7 68 2.6 36.6
12:45 1021 30.15 850 25.1 8.2 46.7 67 2.6 36.6
12:50 1021 30.15 850 25.1 8.3 46.9 67 2.5 36.5
12:55 1021 30.15 850 25.1 8.5 47.3 66 2.6 36.7
13:00 1021 30.15 850 25.1 9.1 48.4 66 3.2 37.7
13:05 1021 30.15 850 25.1 9.4 48.8 64 2.9 37.2
13:10 1021 30.15 850 25.1 9.1 48.3 65 2.8 37
13:15 1021 30.15 850 25.1 9 48.2 65 2.8 37
13:20 1021 30.15 850 25.1 8.9 48 65 2.8 37
13:25 1021 30.15 850 25.1 8.6 47.5 66 2.7 36.8
13:30 1021 30.15 850 25.1 8.5 47.3 65 2.3 36.2
13:35 1021 30.15 850 25.1 9.1 48.3 63 2.4 36.3
13:40 1021 30.15 850 25.1 9.5 49.1 62 2.7 36.8
13:45 1021 30.15 850 25.1 9.3 48.7 67 3.4 38.2
13:50 1021 30.15 850 25.1 7.8 46 71 2.9 37.2
13:55 1021 30.15 850 25.1 7.2 44.9 72 2.5 36.5
14:00 1021 30.15 850 25.1 6.9 44.5 73 2.4 36.3
14:05 1021 30.15 850 25.1 6.9 44.5 72 2.3 36.1
14:10 1021 30.15 850 25.1 7.1 44.7 72 2.3 36.2
14:15 1021 30.15 850 25.1 7.2 45 71 2.3 36.2
14:20 1021 30.15 850 25.1 7.4 45.2 71 2.4 36.4
14:25 1021 30.15 850 25.1 7.4 45.3 71 2.5 36.5
14:30 1021 30.15 850 25.1 7.4 45.4 70 2.4 36.3
14:35 1021 30.15 850 25.1 7.4 45.3 71 2.4 36.4
14:40 1021 30.15 850 25.1 7.5 45.5 69 2.2 35.9
14:45 1021 30.15 850 25.1 7.7 45.9 67 1.9 35.4
14:50 1021 30.15 850 25.1 8.1 46.6 64 1.8 35.2
14:55 1021 30.15 850 25.1 8.8 47.8 62 1.9 35.4
15:00 1021 30.15 850 25.1 9 48.1 61 2 35.6
15:05 1021 30.15 850 25.1 9.1 48.5 59 1.6 35
15:10 1021 30.15 850 25.1 9.3 48.8 60 2 35.7
15:15 1021 30.15 850 25.1 9 48.1 61 1.9 35.3
15:20 1021 30.15 850 25.1 9.2 48.6 56 1 33.8
15:25 1021 30.15 850 25.1 9.9 49.8 54 1 33.8
15:30 1021 30.15 850 25.1 9.9 49.8 44 -1.7 29
15:35 1021 30.15 850 25.1 10.3 50.5 44 -1.3 29.7
15:40 1021 30.15 850 25.1 10.1 50.1 39 -3.3 26.1
15:45 1021 30.15 850 25.1 9.9 49.7 39 -3.6 25.5
15:50 1021 30.15 850 25.1 9.9 49.9 39 -3.2 26.2
15:55 1021 30.15 850 25.1 10 49.9 40 -2.9 26.9
16:00 1021 30.15 850 25.1 9.6 49.2 50 -0.2 31.7
16:05 1021 30.15 850 25.1 8.8 47.9 53 -0.2 31.6
16:10 1021 30.15 850 25.1 8.5 47.3 54 -0.2 31.7
16:15 1021 30.15 850 25.1 8.8 47.8 53 -0.1 31.8
16:20 1021 30.15 850 25.1 8.5 47.2 53 -0.6 30.9
16:25 1021 30.15 850 25.1 8.1 46.5 56 -0.3 31.5
16:30 1021 30.15 850 25.1 7.9 46.1 55 -0.5 31.1
16:35 1021 30.15 850 25.1 7.8 46 55 -0.6 31
16:40 1021 30.15 850 25.1 7.8 46 52 -1.4 29.5
16:45 1021 30.15 850 25.1 7.8 46 52 -1.5 29.3
16:50 1021 30.15 850 25.1 7.9 46.2 50 -1.8 28.8
16:55 1021 30.15 850 25.1 8.1 46.5 53 -1 30.2
17:00 1021 30.15 850 25.1 7.9 46.1 50 -1.8 28.7
17:05 1021 30.15 850 25.1 7.7 45.9 50 -1.9 28.6
17:10 1021 30.15 850 25.1 7.7 45.8 45 -3.6 25.6
17:15 1021 30.15 850 25.1 7.8 46.1 46 -3.2 26.3
17:20 1021 30.15 850 25.1 7.7 45.9 46 -3.1 26.4
17:25 1021 30.15 851 25.13 7.6 45.6 47 -2.9 26.7
17:30 1021 30.15 851 25.13 7.4 45.3 48 -2.9 26.9
17:35 1021 30.15 851 25.13 7.3 45.2 49 -2.8 27
17:40 1021 30.15 851 25.13 7.3 45.1 49 -2.8 27
17:45 1021 30.15 851 25.13 7.1 44.8 51 -2.3 27.9
17:50 1021 30.15 851 25.13 6.7 44.1 51 -2.6 27.3
17:55 1021 30.15 851 25.13 6.7 44 52 -2.4 27.7
18:00 1021 30.15 850 25.1 6.5 43.8 52 -2.5 27.5
18:05 1021 30.15 850 25.1 6.6 43.9 49 -3.3 26
18:10 1021 30.15 850 25.1 6.7 44 51 -2.7 27.2
18:15 1021 30.15 850 25.1 6.6 43.8 50 -3.1 26.5
18:20 1021 30.15 850 25.1 6.7 44.1 48 -3.6 25.5
18:25 1021 30.15 850 25.1 6.9 44.4 47 -3.7 25.3
18:30 1021 30.15 850 25.1 7 44.5 47 -3.7 25.4
18:35 1021 30.15 850 25.1 7.1 44.7 46 -3.7 25.3
18:40 1021 30.15 850 25.1 7.2 44.9 46 -3.7 25.4
18:45 1021 30.15 850 25.1 7 44.6 49 -3 26.6
18:50 1021 30.15 850 25.1 6.5 43.7 49 -3.4 25.9
18:55 1021 30.15 850 25.1 6.6 44 48 -3.4 25.8
19:00 1021 30.15 850 25.1 6.8 44.2 49 -3.2 26.3
19:05 1021 30.15 850 25.1 6.7 44.1 50 -2.9 26.7
19:10 1021 30.15 850 25.1 6.5 43.6 52 -2.7 27.1
19:15 1021 30.15 850 25.1 6.4 43.5 50 -3.2 26.3
19:20 1021 30.15 850 25.1 6.4 43.6 51 -3.1 26.5
19:25 1021 30.15 850 25.1 6.4 43.5 51 -3.1 26.4
19:30 1021 30.15 850 25.1 6.4 43.6 50 -3.3 26.1
19:35 1021 30.15 850 25.1 6.5 43.7 50 -3.1 26.3
19:40 1021 30.15 850 25.1 6.5 43.8 51 -2.9 26.8
19:45 1021 30.15 850 25.1 6.4 43.5 52 -2.8 27
19:50 1021 30.15 850 25.1 6.4 43.6 51 -2.9 26.8
19:55 1021 30.15 850 25.1 6.4 43.6 51 -2.8 26.9
20:00 1021 30.15 850 25.1 6.3 43.4 50 -3.2 26.2
20:05 1021 30.15 850 25.1 6.3 43.3 51 -3.2 26.3
20:10 1021 30.15 850 25.1 6.4 43.4 52 -2.8 27
20:15 1021 30.15 850 25.1 6.2 43.2 53 -2.6 27.2
20:20 1021 30.15 850 25.1 6.1 43 53 -2.7 27.1
20:25 1021 30.15 850 25.1 6.1 43 54 -2.4 27.6
20:30 1021 30.15 850 25.1 6.1 42.9 54 -2.4 27.6
20:35 1021 30.15 850 25.1 5.9 42.7 55 -2.3 27.9
20:40 1021 30.15 850 25.1 5.9 42.5 55 -2.5 27.5
20:45 1021 30.15 850 25.1 6 42.8 54 -2.5 27.6
20:50 1021 30.15 850 25.1 6.1 43 55 -2.4 27.8
20:55 1021 30.15 850 25.1 6.1 43 55 -2.2 28
21:00 1021 30.15 850 25.1 6.3 43.3 54 -2.5 27.6
21:05 1021 30.15 850 25.1 6.7 44.1 53 -2.1 28.2
21:10 1021 30.15 850 25.1 6.8 44.3 54 -1.9 28.6
21:15 1021 30.15 850 25.1 6.7 44 54 -2 28.4
21:20 1021 30.15 850 25.1 6.7 44.1 54 -2 28.4
21:25 1021 30.15 850 25.1 6.6 44 53 -2.1 28.2
21:30 1021 30.15 850 25.1 6.6 43.9 55 -1.8 28.7
21:35 1021 30.15 850 25.1 6.5 43.7 56 -1.7 29
21:40 1021 30.15 850 25.1 6.5 43.6 55 -2 28.4
21:45 1021 30.15 850 25.1 6.4 43.4 55 -2 28.4
21:50 1021 30.15 850 25.1 6.1 43 57 -1.7 29
21:55 1021 30.15 850 25.1 5.7 42.3 59 -1.7 28.9
22:00 1021 30.15 850 25.1 5.3 41.6 60 -1.8 28.8
22:05 1021 30.15 850 25.1 5.1 41.1 59 -2.3 27.8
22:10 1021 30.15 850 25.1 5.1 41.2 57 -2.7 27.1
22:15 1021 30.15 850 25.1 5.3 41.5 54 -3.2 26.3
22:20 1021 30.15 850 25.1 5.6 42 54 -3 26.7
22:25 1021 30.15 850 25.1 5.6 42.1 53 -3.3 26
22:30 1021 30.15 850 25.1 5.7 42.2 52 -3.4 25.9
22:35 1021 30.15 850 25.1 5.8 42.4 52 -3.3 26.1
22:40 1021 30.15 850 25.1 5.8 42.4 52 -3.4 25.8
22:45 1021 30.15 850 25.1 5.8 42.5 50 -3.7 25.4
22:50 1021 30.15 850 25.1 5.9 42.7 50 -3.7 25.4
22:55 1021 30.15 850 25.1 6 42.8 50 -3.5 25.7
23:00 1021 30.15 850 25.1 6 42.7 49 -3.9 25
23:05 1021 30.15 850 25.1 6.1 42.9 49 -3.8 25.2
23:10 1021 30.15 850 25.1 6.1 43 50 -3.6 25.5
23:15 1021 30.15 850 25.1 6.1 43 50 -3.5 25.7
23:20 1021 30.15 850 25.1 6 42.7 51 -3.4 25.8
23:25 1021 30.15 850 25.1 5.9 42.6 51 -3.6 25.5
23:30 1021 30.15 850 25.1 5.9 42.7 50 -3.6 25.5
23:35 1021 30.15 850 25.1 6 42.9 51 -3.4 25.9
23:40 1021 30.15 850 25.1 5.9 42.6 55 -2.4 27.6
23:45 1021 30.15 850 25.1 5.2 41.3 56 -2.9 26.8
23:50 1021 30.15 850 25.1 5.2 41.3 56 -2.9 26.8
23:55 1021 30.15 850 25.1 5.1 41.2 56 -3 26.6
24:00 1021 30.15 850 25.1 4.9 40.8 57 -3 26.6